Terminal Aerodrome Forecast
Issued by NWS

Home | Current Version | Previous Version | Text Only | Print | Product List | Glossary On
Versions: 1 2 3 4 5 6 7 8 9 10 11 12 13 14 15 16 17 18 19 20 21 22 23 24 25 26 27 28 29
000
FTUS41 KBUF 161500 AAA
TAFJHW
TAF AMD
KJHW 161515Z 1615/1712 31009KT P6SM BKN010 BKN020 OVC030
      TEMPO 1615/1618 SCT020
     FM161800 31008KT P6SM BKN030
     FM162300 29005KT P6SM SCT035
     FM170800 28004KT 3SM BR BKN025
      AMD LTD TO CLD VIS AND WIND=

USA.gov is the U.S. government's official web portal to all federal, state and local government web resources and services.